createdAt,value
2018-11-11T00:01:26.221Z,22.07
2018-11-11T00:06:29.946Z,22.05
2018-11-11T00:11:33.464Z,22.05
2018-11-11T00:16:36.966Z,22.05
2018-11-11T00:21:40.498Z,22.05
2018-11-11T00:26:44.033Z,22.06
2018-11-11T00:31:47.485Z,22.06
2018-11-11T00:36:50.932Z,22.06
2018-11-11T00:41:54.417Z,22.05
2018-11-11T00:46:57.904Z,22.05
2018-11-11T00:52:01.405Z,22.05
2018-11-11T00:57:04.855Z,22.06
2018-11-11T01:02:08.318Z,22.06
2018-11-11T01:07:11.847Z,22.05
2018-11-11T01:12:15.362Z,22.07
2018-11-11T01:17:19.055Z,22.06
2018-11-11T01:22:22.510Z,22.05
2018-11-11T01:27:26.024Z,22.06
2018-11-11T01:32:29.442Z,22.05
2018-11-11T01:37:32.978Z,22.06
2018-11-11T01:42:36.543Z,22.06
2018-11-11T01:47:40.073Z,22.06
2018-11-11T01:52:43.594Z,22.05
2018-11-11T01:57:47.202Z,22.06
2018-11-11T02:02:50.825Z,22.05
2018-11-11T02:07:54.440Z,22.06
2018-11-11T02:12:57.890Z,22.06
2018-11-11T02:18:01.330Z,22.05
2018-11-11T02:23:04.940Z,22.07
2018-11-11T02:28:08.439Z,22.06
2018-11-11T02:33:11.858Z,22.06
2018-11-11T02:38:15.283Z,22.06
2018-11-11T02:43:18.740Z,22.06
2018-11-11T02:48:22.156Z,22.07
2018-11-11T02:53:25.693Z,22.07
2018-11-11T02:58:29.191Z,22.07
2018-11-11T03:03:32.607Z,22.07
2018-11-11T03:08:36.133Z,22.06
2018-11-11T03:13:39.569Z,22.05
2018-11-11T03:18:43.081Z,22.07
2018-11-11T03:23:46.614Z,22.07
2018-11-11T03:28:50.045Z,22.07
2018-11-11T03:33:53.505Z,22.07
2018-11-11T03:38:56.957Z,22.06
2018-11-11T03:44:00.366Z,22.07
2018-11-11T03:49:03.895Z,22.06
2018-11-11T03:54:07.321Z,22.06
2018-11-11T03:59:10.711Z,22.05
2018-11-11T04:04:14.249Z,22.05
2018-11-11T04:09:17.828Z,22.07
2018-11-11T04:14:21.252Z,22.06
2018-11-11T04:19:25.662Z,22.05
2018-11-11T04:24:29.156Z,22.07
2018-11-11T04:29:32.574Z,22.05
2018-11-11T04:34:36.016Z,22.07
2018-11-11T04:39:40.073Z,22.06
2018-11-11T04:44:43.574Z,22.06
2018-11-11T04:49:47.029Z,22.07
2018-11-11T04:54:50.599Z,22.06
2018-11-11T04:59:54.109Z,22.07
2018-11-11T05:04:57.613Z,22.07
2018-11-11T05:10:01.157Z,22.07
2018-11-11T05:15:04.878Z,22.08
2018-11-11T05:20:09.323Z,22.06
2018-11-11T05:25:13.984Z,22.07
2018-11-11T05:30:17.392Z,22.08
2018-11-11T05:35:20.888Z,22.08
2018-11-11T05:40:24.383Z,22.07
2018-11-11T05:45:27.962Z,22.07
2018-11-11T05:50:31.377Z,22.06
2018-11-11T05:55:34.827Z,22.07
2018-11-11T06:00:38.612Z,22.07
2018-11-11T06:05:42.028Z,22.07
2018-11-11T06:10:45.449Z,22.08
2018-11-11T06:15:48.897Z,22.06
2018-11-11T06:20:52.300Z,22.04
2018-11-11T06:25:55.727Z,22.06
2018-11-11T06:30:59.140Z,22.04
2018-11-11T06:36:02.617Z,22.03
2018-11-11T06:41:06.406Z,22.04
2018-11-11T06:46:09.834Z,22.03
2018-11-11T06:51:13.245Z,22.03
2018-11-11T06:56:16.638Z,22.02
2018-11-11T07:01:20.034Z,22.02
2018-11-11T07:06:24.121Z,22.00
2018-11-11T07:11:27.529Z,21.99
2018-11-11T07:16:30.954Z,21.98
2018-11-11T07:21:34.425Z,21.96
2018-11-11T07:26:38.069Z,21.95
2018-11-11T07:31:41.473Z,21.94
2018-11-11T07:36:44.899Z,21.93
2018-11-11T07:41:48.322Z,21.90
2018-11-11T07:46:51.743Z,21.87
2018-11-11T07:51:55.318Z,21.88
2018-11-11T07:56:58.815Z,21.87
2018-11-11T08:02:02.401Z,21.86
2018-11-11T08:07:06.418Z,18.69
2018-11-11T08:12:09.881Z,17.73
2018-11-11T08:17:13.321Z,18.14
2018-11-11T08:22:16.787Z,19.75
2018-11-11T08:27:20.267Z,20.16
2018-11-11T08:32:24.003Z,20.37
2018-11-11T08:37:27.494Z,20.47
2018-11-11T08:42:33.990Z,20.60
2018-11-11T08:47:37.435Z,20.68
2018-11-11T08:52:41.178Z,20.81
2018-11-11T08:57:44.672Z,20.83
2018-11-11T09:02:48.781Z,20.92
2018-11-11T09:07:52.285Z,20.80
2018-11-11T09:12:55.789Z,20.96
2018-11-11T09:17:59.321Z,20.92
2018-11-11T09:23:03.025Z,20.91
2018-11-11T09:28:06.728Z,20.93
2018-11-11T09:33:10.240Z,20.95
2018-11-11T09:38:13.718Z,20.96
2018-11-11T09:43:17.190Z,20.99
2018-11-11T09:48:20.885Z,21.02
2018-11-11T09:53:24.516Z,21.00
2018-11-11T09:58:28.099Z,21.02
2018-11-11T10:03:35.359Z,21.03
2018-11-11T10:09:48.011Z,21.01
2018-11-11T10:15:01.370Z,21.03
2018-11-11T10:20:11.643Z,21.02
2018-11-11T10:25:25.274Z,21.01
2018-11-11T10:30:39.632Z,21.01
2018-11-11T10:35:47.002Z,21.00
2018-11-11T10:41:04.629Z,21.01
2018-11-11T10:46:16.800Z,21.02
2018-11-11T10:51:20.439Z,21.03
2018-11-11T10:56:24.121Z,21.17
2018-11-11T11:02:30.667Z,21.19
2018-11-11T11:07:34.142Z,21.22
2018-11-11T11:12:38.157Z,21.22
2018-11-11T11:17:42.263Z,21.24
2018-11-11T11:22:46.270Z,21.25
2018-11-11T11:27:50.371Z,21.33
2018-11-11T11:32:53.830Z,21.38
2018-11-11T11:37:57.475Z,21.49
2018-11-11T11:43:00.937Z,21.63
2018-11-11T11:48:04.388Z,21.69
2018-11-11T11:53:08.731Z,21.73
2018-11-11T11:58:20.883Z,21.87
2018-11-11T12:03:24.320Z,21.93
2018-11-11T12:08:27.821Z,21.94
2018-11-11T12:13:31.274Z,21.96
2018-11-11T12:18:34.695Z,21.90
2018-11-11T12:23:38.297Z,21.90
2018-11-11T12:28:41.789Z,21.93
2018-11-11T12:33:45.420Z,21.96
2018-11-11T12:38:48.857Z,21.97
2018-11-11T12:43:52.402Z,21.99
2018-11-11T12:48:56.048Z,21.86
2018-11-11T12:53:59.594Z,20.95
2018-11-11T12:59:03.042Z,20.53
2018-11-11T13:04:06.499Z,20.62
2018-11-11T13:09:10.462Z,20.83
2018-11-11T13:14:13.858Z,20.75
2018-11-11T13:19:17.342Z,20.18
2018-11-11T13:24:20.780Z,19.99
2018-11-11T13:29:24.490Z,20.97
2018-11-11T13:34:28.199Z,21.05
2018-11-11T13:39:31.712Z,21.08
2018-11-11T13:44:35.144Z,21.11
2018-11-11T13:49:38.546Z,21.10
2018-11-11T13:54:42.006Z,21.12
2018-11-11T13:59:45.448Z,21.10
2018-11-11T14:04:48.891Z,21.10
2018-11-11T14:09:52.302Z,21.12
2018-11-11T14:14:55.802Z,21.11
2018-11-11T14:19:59.401Z,21.12
2018-11-11T14:25:02.961Z,21.11
2018-11-11T14:30:09.521Z,21.09
2018-11-11T14:35:13.599Z,21.12
2018-11-11T14:40:22.854Z,21.10
2018-11-11T14:45:26.801Z,21.10
2018-11-11T14:50:30.317Z,21.09
2018-11-11T14:55:33.768Z,21.08
2018-11-11T15:00:37.267Z,21.20
2018-11-11T15:05:40.682Z,21.47
2018-11-11T15:10:44.189Z,21.44
2018-11-11T15:15:47.683Z,21.54
2018-11-11T15:20:51.270Z,21.58
2018-11-11T15:25:54.562Z,21.60
2018-11-11T15:30:58.272Z,21.61
2018-11-11T15:36:02.557Z,21.58
2018-11-11T15:41:05.973Z,21.66
2018-11-11T15:46:09.505Z,21.67
2018-11-11T15:51:13.101Z,21.66
2018-11-11T15:56:16.879Z,21.67
2018-11-11T16:01:20.451Z,21.68
2018-11-11T16:06:24.492Z,21.68
2018-11-11T16:11:27.874Z,21.71
2018-11-11T16:16:31.287Z,21.72
2018-11-11T16:21:34.813Z,21.71
2018-11-11T16:26:38.247Z,21.73
2018-11-11T16:31:41.825Z,21.72
2018-11-11T16:36:45.399Z,21.75
2018-11-11T16:41:48.891Z,21.73
2018-11-11T16:46:52.428Z,21.74
2018-11-11T16:51:55.948Z,21.75
2018-11-11T16:56:59.444Z,21.75
2018-11-11T17:02:03.994Z,21.77
2018-11-11T17:07:07.415Z,21.77
2018-11-11T17:12:10.949Z,21.80
2018-11-11T17:17:14.617Z,21.81
2018-11-11T17:22:18.419Z,22.10
2018-11-11T17:27:21.530Z,22.47
2018-11-11T17:32:24.962Z,22.55
2018-11-11T17:37:28.346Z,22.52
2018-11-11T17:42:31.737Z,22.53
2018-11-11T17:47:35.137Z,22.55
2018-11-11T17:52:39.009Z,22.47
2018-11-11T17:57:43.027Z,22.41
2018-11-11T18:02:46.674Z,22.40
2018-11-11T18:07:50.234Z,22.36
2018-11-11T18:12:53.786Z,22.30
2018-11-11T18:17:57.342Z,22.25
2018-11-11T18:23:01.649Z,22.28
2018-11-11T18:28:05.366Z,22.26
2018-11-11T18:33:08.632Z,22.23
2018-11-11T18:38:12.059Z,22.15
2018-11-11T18:43:15.477Z,22.14
2018-11-11T18:48:18.883Z,22.11
2018-11-11T18:53:22.336Z,22.09
2018-11-11T18:58:25.798Z,22.11
2018-11-11T19:03:29.342Z,22.13
2018-11-11T19:08:32.906Z,22.18
2018-11-11T19:13:36.488Z,22.23
2018-11-11T19:18:40.688Z,22.32
2018-11-11T19:23:44.598Z,22.32
2018-11-11T19:28:48.025Z,22.37
2018-11-11T19:33:51.498Z,22.35
2018-11-11T19:38:54.927Z,22.33
2018-11-11T19:43:58.317Z,22.41
2018-11-11T19:49:01.782Z,22.31
2018-11-11T19:54:05.401Z,22.28
2018-11-11T19:59:08.833Z,22.27
2018-11-11T20:04:12.388Z,22.23
2018-11-11T20:09:15.838Z,22.23
2018-11-11T20:14:19.323Z,22.20
2018-11-11T20:19:22.750Z,22.18
2018-11-11T20:24:26.219Z,22.24
2018-11-11T20:29:29.649Z,22.15
2018-11-11T20:39:35.488Z,22.14
2018-11-11T20:44:39.948Z,22.16
2018-11-11T20:49:43.610Z,22.15
2018-11-11T20:54:48.479Z,22.13
2018-11-11T20:59:51.908Z,22.12
2018-11-11T21:04:55.378Z,22.11
2018-11-11T21:09:58.815Z,22.10
2018-11-11T21:15:02.354Z,22.09
2018-11-11T21:20:07.925Z,22.09
2018-11-11T21:25:11.458Z,22.13
2018-11-11T21:30:16.252Z,22.11
2018-11-11T21:35:19.739Z,22.12
2018-11-11T21:40:24.225Z,22.12
2018-11-11T21:45:28.853Z,22.10
2018-11-11T21:50:32.289Z,22.11
2018-11-11T21:55:35.703Z,22.10
2018-11-11T22:00:39.199Z,22.11
2018-11-11T22:05:42.586Z,22.12
2018-11-11T22:10:46.011Z,22.10
2018-11-11T22:15:49.650Z,22.10
2018-11-11T22:20:53.030Z,22.10
2018-11-11T22:25:56.486Z,22.10
2018-11-11T22:30:59.937Z,22.10
2018-11-11T22:36:03.625Z,22.10
2018-11-11T22:41:07.089Z,22.09
2018-11-11T22:46:10.564Z,22.09
2018-11-11T22:51:14.011Z,22.09
2018-11-11T22:56:17.470Z,22.09
2018-11-11T23:01:22.120Z,22.09
2018-11-11T23:06:25.472Z,22.09
2018-11-11T23:11:28.925Z,22.09
2018-11-11T23:16:32.467Z,22.24
2018-11-11T23:21:36.519Z,22.27
2018-11-11T23:26:40.326Z,22.29
2018-11-11T23:31:44.210Z,22.26
2018-11-11T23:36:47.975Z,22.32
2018-11-11T23:41:52.788Z,22.31
2018-11-11T23:46:56.223Z,22.29
2018-11-11T23:51:59.718Z,22.28
2018-11-11T23:57:10.080Z,22.30
